»·PEaware :: N902SQ KRAL-KFAT

N902SQ :: KRAL-KFAT

FLIGHT INFORMATION

Flight Status: Arrived
Operator: Privately registered:
United States
More flights under this callsign
Pilot: Gabor H. (24209)
Aircraft: SOCATA TBM-900
(TBM9)
More flights by this aircraft type
Origin: KRAL Riverside Mun
United States
Destination: KFAT Fresno Yosemite Intl
United States
More flights between these airports :: More routes between these airports
Route: RAL2 PDZ V186 DARTS V459 TTE ALTTA9
File this flight plan on PilotEdge
Remarks:
Altitude:
(Current/Filed)
22,000ft
Speed:
(Current/Filed)
290kts
Departed: 07-Oct-23 10:58 AM
Arrived: 07-Oct-23 11:52 AM
Distance/Time
Traveled:
203nm/0:54
Distance/Time
To Go:
Arrived

Flight Plot

Page will automatically refresh every two minutes.

Flight plan parsing failed; only flown route is shown


Map Options




Map Legend


Flown Route
Filed Route
Departure Airport
Arrival Airport
Navaid (VOR, NDB)
Fix

Horizontal Profiles

Position Reports

Time Latitude Longitude Heading Altitude Ground
Speed
07-Oct-23 10:41 33.950094 -117.443185 117 818ft 0kts
07-Oct-23 10:42 33.950094 -117.443185 117 818ft 0kts
07-Oct-23 10:43 33.950094 -117.443185 117 818ft 0kts
07-Oct-23 10:44 33.950094 -117.443185 117 818ft 0kts
07-Oct-23 10:45 33.950094 -117.443185 117 818ft 0kts
07-Oct-23 10:46 33.950094 -117.443185 117 818ft 0kts
07-Oct-23 10:47 33.950094 -117.443185 117 818ft 0kts
07-Oct-23 10:48 33.950094 -117.443185 117 818ft 0kts
07-Oct-23 10:49 33.950094 -117.443185 117 818ft 0kts
07-Oct-23 10:50 33.950094 -117.443185 117 818ft 0kts
07-Oct-23 10:51 33.950094 -117.443185 117 818ft 0kts
07-Oct-23 10:52 33.950094 -117.443185 117 818ft 0kts
07-Oct-23 10:54 33.950804 -117.441959 106 818ft 15kts
07-Oct-23 10:55 33.950306 -117.437460 105 818ft 13kts
07-Oct-23 10:56 33.949940 -117.435111 60 818ft 0kts
07-Oct-23 10:57 33.950466 -117.434893 336 818ft 12kts
07-Oct-23 10:58 33.954112 -117.464153 268 1701ft 139kts
07-Oct-23 10:59 33.939723 -117.504189 225 4003ft 150kts
07-Oct-23 11:00 33.914865 -117.547532 289 4158ft 159kts
07-Oct-23 11:01 33.942490 -117.535831 91 5634ft 168kts
07-Oct-23 11:02 33.943289 -117.479642 105 7541ft 173kts
07-Oct-23 11:03 33.915731 -117.496085 275 9647ft 183kts
07-Oct-23 11:04 33.927403 -117.555271 293 11595ft 185kts
07-Oct-23 11:05 33.947396 -117.612214 294 13571ft 187kts
07-Oct-23 11:06 33.967890 -117.670302 293 15550ft 191kts
07-Oct-23 11:07 33.988724 -117.729486 292 17435ft 194kts
07-Oct-23 11:08 34.008983 -117.790807 290 19119ft 203kts
07-Oct-23 11:09 34.029388 -117.856319 294 20628ft 214kts
07-Oct-23 11:10 34.081565 -117.891979 332 22006ft 228kts
07-Oct-23 11:11 34.145468 -117.930159 334 22015ft 279kts
07-Oct-23 11:12 34.217367 -117.973462 333 21998ft 296kts
07-Oct-23 11:13 34.291699 -118.018348 333 22016ft 301kts
07-Oct-23 11:14 34.366611 -118.063687 334 22080ft 302kts
07-Oct-23 11:15 34.441705 -118.109229 333 22118ft 303kts
07-Oct-23 11:16 34.517060 -118.155026 334 22113ft 304kts
07-Oct-23 11:17 34.592760 -118.201118 333 22124ft 305kts
07-Oct-23 11:18 34.668367 -118.247254 333 22122ft 305kts
07-Oct-23 11:19 34.743968 -118.293484 333 22120ft 304kts
07-Oct-23 11:19 34.806975 -118.332086 333 22120ft 305kts
07-Oct-23 11:21 34.895315 -118.386313 333 22142ft 304kts
07-Oct-23 11:22 34.970930 -118.432840 333 22179ft 305kts
07-Oct-23 11:23 35.046506 -118.479439 333 22201ft 305kts
07-Oct-23 11:24 35.122131 -118.526158 333 22201ft 306kts
07-Oct-23 11:24 35.185350 -118.565305 333 22200ft 305kts
07-Oct-23 11:25 35.261248 -118.612375 333 22161ft 307kts
07-Oct-23 11:26 35.337123 -118.659534 333 22119ft 307kts
07-Oct-23 11:28 35.426034 -118.714929 332 22070ft 307kts
07-Oct-23 11:29 35.503105 -118.763049 332 21313ft 323kts
07-Oct-23 11:29 35.570759 -118.805385 332 20101ft 329kts
07-Oct-23 11:30 35.651906 -118.856269 331 18642ft 326kts
07-Oct-23 11:31 35.732069 -118.906672 331 17203ft 322kts
07-Oct-23 11:32 35.810370 -118.955980 331 15800ft 312kts
07-Oct-23 11:33 35.886929 -119.004301 331 14433ft 306kts
07-Oct-23 11:34 35.963324 -119.044705 338 13471ft 296kts
07-Oct-23 11:35 36.040331 -119.081293 338 12128ft 299kts
07-Oct-23 11:36 36.116843 -119.118176 333 10987ft 288kts
07-Oct-23 11:37 36.180793 -119.176916 322 9736ft 286kts
07-Oct-23 11:38 36.244005 -119.236633 322 8228ft 286kts
07-Oct-23 11:39 36.307460 -119.297004 322 6729ft 289kts
07-Oct-23 11:40 36.370792 -119.357673 322 5230ft 286kts
07-Oct-23 11:41 36.431739 -119.415979 322 3995ft 261kts
07-Oct-23 11:42 36.487099 -119.468956 322 3999ft 249kts
07-Oct-23 11:43 36.541972 -119.521364 322 4000ft 248kts
07-Oct-23 11:44 36.596633 -119.573517 322 4000ft 248kts
07-Oct-23 11:45 36.651511 -119.625825 323 4000ft 248kts
07-Oct-23 11:46 36.703856 -119.680751 304 3140ft 248kts
07-Oct-23 11:47 36.742025 -119.746356 305 1805ft 206kts
07-Oct-23 11:48 36.769288 -119.791102 318 1258ft 134kts
07-Oct-23 11:49 36.794878 -119.774181 48 1276ft 102kts
07-Oct-23 11:50 36.789078 -119.743113 124 641ft 91kts
07-Oct-23 11:51 36.778902 -119.725239 150 336ft 18kts
07-Oct-23 11:52 36.778102 -119.725505 215 336ft 0kts
07-Oct-23 11:53 36.777965 -119.725621 212 336ft 6kts
07-Oct-23 11:54 36.778629 -119.728882 305 336ft 13kts
07-Oct-23 11:55 36.778955 -119.730579 215 336ft 0kts
07-Oct-23 11:56 36.778955 -119.730579 215 336ft 0kts
07-Oct-23 11:57 36.778955 -119.730579 215 336ft 0kts
07-Oct-23 11:58 36.778955 -119.730579 215 336ft 0kts
07-Oct-23 11:59 36.778955 -119.730579 215 336ft 0kts
07-Oct-23 12:00 36.778955 -119.730579 215 336ft 0kts

Navigation Log

Ident Type
Flight plan parsing failed, navigation log unavailable